createdAt,value
2019-02-17T00:02:11.745Z,48.60
2019-02-17T00:04:42.433Z,47.80
2019-02-17T00:07:13.001Z,47.90
2019-02-17T00:09:43.493Z,48.00
2019-02-17T00:12:14.001Z,48.00
2019-02-17T00:14:44.494Z,48.00
2019-02-17T00:17:15.005Z,48.00
2019-02-17T00:19:48.459Z,48.20
2019-02-17T00:22:19.373Z,48.20
2019-02-17T00:24:50.049Z,48.20
2019-02-17T00:27:20.716Z,48.20
2019-02-17T00:29:51.296Z,48.90
2019-02-17T00:32:21.758Z,48.40
2019-02-17T00:34:52.376Z,48.40
2019-02-17T00:37:22.772Z,48.30
2019-02-17T00:39:53.314Z,48.40
2019-02-17T00:42:23.825Z,48.50
2019-02-17T00:44:54.246Z,48.40
2019-02-17T00:47:24.729Z,48.40
2019-02-17T00:49:56.484Z,48.40
2019-02-17T00:52:27.945Z,48.50
2019-02-17T00:54:58.465Z,48.40
2019-02-17T00:57:28.935Z,48.50
2019-02-17T00:59:59.429Z,48.50
2019-02-17T01:02:30.071Z,48.50
2019-02-17T01:05:00.658Z,48.60
2019-02-17T01:07:31.518Z,48.60
2019-02-17T01:10:02.072Z,48.60
2019-02-17T01:12:32.605Z,48.60
2019-02-17T01:15:03.207Z,48.60
2019-02-17T01:17:33.796Z,48.70
2019-02-17T01:20:04.570Z,48.70
2019-02-17T01:22:35.022Z,48.80
2019-02-17T01:25:05.822Z,48.70
2019-02-17T01:27:36.350Z,48.80
2019-02-17T01:30:08.045Z,48.80
2019-02-17T01:32:38.560Z,48.90
2019-02-17T01:35:09.097Z,48.90
2019-02-17T01:37:40.171Z,49.00
2019-02-17T01:40:10.627Z,49.00
2019-02-17T01:42:41.287Z,48.90
2019-02-17T01:45:12.032Z,48.90
2019-02-17T01:47:42.498Z,48.90
2019-02-17T01:50:12.959Z,48.90
2019-02-17T01:52:43.432Z,49.00
2019-02-17T01:55:13.959Z,49.00
2019-02-17T01:57:44.376Z,49.00
2019-02-17T02:00:15.500Z,49.00
2019-02-17T02:02:46.074Z,49.00
2019-02-17T02:05:16.924Z,49.00
2019-02-17T02:07:47.468Z,49.10
2019-02-17T02:10:18.122Z,49.00
2019-02-17T02:12:48.537Z,49.00
2019-02-17T02:15:19.085Z,49.10
2019-02-17T02:17:49.605Z,49.10
2019-02-17T02:20:20.199Z,49.10
2019-02-17T02:22:51.028Z,49.20
2019-02-17T02:25:21.742Z,49.20
2019-02-17T02:27:52.443Z,49.20
2019-02-17T02:30:23.078Z,49.20
2019-02-17T02:32:53.817Z,49.20
2019-02-17T02:35:24.219Z,49.20
2019-02-17T02:37:54.790Z,48.60
2019-02-17T02:40:25.501Z,49.20
2019-02-17T02:42:55.987Z,49.20
2019-02-17T02:45:26.423Z,49.30
2019-02-17T02:47:56.920Z,49.40
2019-02-17T02:50:27.545Z,49.30
2019-02-17T02:52:58.361Z,49.30
2019-02-17T02:55:28.852Z,49.30
2019-02-17T02:57:59.418Z,49.40
2019-02-17T03:00:29.994Z,49.40
2019-02-17T03:03:00.504Z,49.40
2019-02-17T03:05:31.008Z,49.40
2019-02-17T03:08:01.588Z,49.40
2019-02-17T03:10:32.038Z,49.50
2019-02-17T03:13:02.536Z,49.50
2019-02-17T03:15:33.183Z,49.40
2019-02-17T03:18:03.631Z,49.50
2019-02-17T03:20:34.105Z,49.40
2019-02-17T03:23:04.565Z,49.30
2019-02-17T03:25:34.997Z,49.30
2019-02-17T03:28:05.568Z,49.30
2019-02-17T03:30:36.045Z,50.00
2019-02-17T03:33:06.547Z,49.40
2019-02-17T03:35:36.981Z,49.40
2019-02-17T03:38:07.471Z,49.40
2019-02-17T03:40:38.228Z,49.50
2019-02-17T03:43:08.841Z,49.50
2019-02-17T03:45:39.484Z,49.40
2019-02-17T03:48:09.992Z,49.50
2019-02-17T03:50:40.704Z,49.50
2019-02-17T03:53:11.245Z,49.60
2019-02-17T03:55:43.244Z,49.60
2019-02-17T03:58:13.680Z,49.60
2019-02-17T04:00:44.085Z,49.60
2019-02-17T04:03:14.665Z,49.70
2019-02-17T04:05:45.160Z,49.60
2019-02-17T04:08:15.736Z,49.70
2019-02-17T04:10:46.333Z,49.70
2019-02-17T04:13:16.919Z,49.70
2019-02-17T04:15:47.887Z,49.70
2019-02-17T04:18:18.429Z,49.80
2019-02-17T04:20:49.128Z,49.70
2019-02-17T04:23:30.396Z,49.80
2019-02-17T04:25:55.617Z,49.90
2019-02-17T04:28:26.204Z,49.80
2019-02-17T04:30:56.669Z,49.80
2019-02-17T04:33:27.240Z,49.70
2019-02-17T04:35:57.653Z,49.80
2019-02-17T04:38:28.275Z,49.70
2019-02-17T04:41:00.530Z,49.70
2019-02-17T04:43:32.658Z,49.70
2019-02-17T04:46:03.040Z,49.70
2019-02-17T04:48:33.598Z,49.70
2019-02-17T04:51:04.083Z,49.70
2019-02-17T04:53:34.565Z,49.70
2019-02-17T04:56:05.088Z,49.80
2019-02-17T04:58:36.675Z,49.80
2019-02-17T05:01:07.179Z,49.80
2019-02-17T05:03:37.927Z,49.80
2019-02-17T05:06:09.501Z,49.80
2019-02-17T05:08:40.252Z,49.80
2019-02-17T05:11:10.672Z,49.90
2019-02-17T05:13:41.120Z,49.90
2019-02-17T05:16:11.613Z,49.90
2019-02-17T05:18:42.111Z,49.90
2019-02-17T05:21:12.736Z,49.80
2019-02-17T05:23:43.172Z,49.90
2019-02-17T05:26:13.704Z,49.90
2019-02-17T05:28:44.252Z,50.00
2019-02-17T05:31:14.667Z,49.90
2019-02-17T05:33:45.331Z,49.90
2019-02-17T05:36:15.930Z,50.00
2019-02-17T05:38:46.486Z,50.00
2019-02-17T05:41:17.080Z,50.00
2019-02-17T05:43:47.531Z,50.00
2019-02-17T05:46:18.168Z,50.00
2019-02-17T05:48:48.627Z,50.00
2019-02-17T05:51:19.244Z,50.10
2019-02-17T05:53:49.973Z,50.10
2019-02-17T05:56:20.458Z,50.20
2019-02-17T05:58:51.127Z,50.20
2019-02-17T06:01:22.646Z,50.20
2019-02-17T06:03:53.183Z,50.20
2019-02-17T06:06:23.701Z,50.20
2019-02-17T06:08:54.130Z,50.30
2019-02-17T06:11:24.560Z,50.30
2019-02-17T06:13:55.301Z,50.30
2019-02-17T06:16:25.766Z,50.30
2019-02-17T06:18:56.243Z,50.60
2019-02-17T06:21:26.915Z,50.30
2019-02-17T06:23:57.475Z,50.40
2019-02-17T06:26:27.934Z,50.40
2019-02-17T06:28:58.464Z,50.50
2019-02-17T06:31:28.825Z,50.50
2019-02-17T06:33:59.333Z,50.40
2019-02-17T06:36:29.830Z,50.50
2019-02-17T06:39:00.270Z,50.60
2019-02-17T06:41:30.764Z,50.50
2019-02-17T06:44:01.294Z,50.50
2019-02-17T06:46:42.346Z,50.60
2019-02-17T06:49:13.081Z,50.60
2019-02-17T06:51:43.748Z,50.70
2019-02-17T06:54:14.324Z,50.70
2019-02-17T06:56:49.676Z,50.80
2019-02-17T06:59:20.184Z,50.80
2019-02-17T07:01:50.694Z,50.90
2019-02-17T07:04:25.722Z,50.90
2019-02-17T07:07:00.434Z,50.80
2019-02-17T07:09:30.870Z,50.90
2019-02-17T07:12:01.352Z,50.90
2019-02-17T07:14:31.889Z,51.00
2019-02-17T07:17:02.260Z,51.00
2019-02-17T07:19:32.703Z,51.00
2019-02-17T07:22:03.101Z,51.10
2019-02-17T07:24:33.600Z,51.10
2019-02-17T07:27:04.414Z,51.10
2019-02-17T07:29:34.858Z,51.30
2019-02-17T07:32:05.332Z,51.30
2019-02-17T07:34:35.824Z,51.50
2019-02-17T07:37:06.312Z,51.40
2019-02-17T07:39:36.910Z,51.40
2019-02-17T07:42:09.512Z,51.40
2019-02-17T07:44:40.456Z,51.40
2019-02-17T07:47:11.025Z,51.50
2019-02-17T07:49:41.468Z,51.30
2019-02-17T07:52:12.003Z,51.40
2019-02-17T07:54:43.043Z,51.40
2019-02-17T07:57:13.554Z,51.40
2019-02-17T07:59:44.111Z,51.40
2019-02-17T08:02:14.938Z,51.40
2019-02-17T08:04:45.476Z,51.40
2019-02-17T08:07:18.704Z,51.40
2019-02-17T08:09:49.176Z,51.50
2019-02-17T08:12:19.744Z,51.60
2019-02-17T08:14:50.486Z,51.80
2019-02-17T08:17:20.908Z,52.00
2019-02-17T08:19:51.363Z,52.10
2019-02-17T08:22:21.810Z,52.30
2019-02-17T08:24:52.400Z,53.00
2019-02-17T08:27:22.913Z,52.40
2019-02-17T08:29:53.439Z,52.50
2019-02-17T08:32:23.975Z,52.60
2019-02-17T08:34:54.445Z,52.60
2019-02-17T08:37:24.921Z,52.70
2019-02-17T08:39:55.452Z,52.80
2019-02-17T08:42:25.973Z,52.80
2019-02-17T08:44:56.481Z,52.90
2019-02-17T08:47:26.964Z,52.90
2019-02-17T08:49:57.532Z,52.90
2019-02-17T08:52:27.994Z,52.90
2019-02-17T08:54:58.533Z,53.00
2019-02-17T08:57:29.063Z,53.10
2019-02-17T08:59:59.693Z,53.20
2019-02-17T09:02:30.615Z,53.30
2019-02-17T09:05:01.279Z,53.40
2019-02-17T09:07:31.951Z,53.40
2019-02-17T09:10:12.072Z,53.50
2019-02-17T09:12:42.877Z,53.50
2019-02-17T09:15:14.450Z,53.50
2019-02-17T09:17:45.086Z,53.60
2019-02-17T09:20:15.656Z,53.60
2019-02-17T09:22:47.096Z,53.70
2019-02-17T09:25:17.609Z,53.70
2019-02-17T09:27:48.094Z,53.80
2019-02-17T09:30:18.563Z,53.80
2019-02-17T09:32:49.086Z,53.70
2019-02-17T09:35:19.562Z,53.70
2019-02-17T09:37:50.048Z,53.70
2019-02-17T09:40:20.827Z,53.70
2019-02-17T09:42:51.557Z,53.80
2019-02-17T09:45:23.261Z,53.70
2019-02-17T09:47:53.716Z,53.70
2019-02-17T09:50:24.097Z,53.60
2019-02-17T09:52:54.729Z,53.60
2019-02-17T09:55:25.112Z,53.50
2019-02-17T09:57:55.622Z,53.50
2019-02-17T10:00:26.388Z,53.40
2019-02-17T10:02:57.048Z,53.30
2019-02-17T10:05:27.754Z,53.20
2019-02-17T10:07:58.750Z,53.10
2019-02-17T10:10:29.427Z,53.00
2019-02-17T10:13:01.370Z,52.90
2019-02-17T10:15:34.763Z,52.80
2019-02-17T10:18:05.436Z,52.80
2019-02-17T10:20:36.022Z,52.70
2019-02-17T10:23:06.668Z,52.50
2019-02-17T10:25:37.286Z,52.30
2019-02-17T10:28:09.393Z,52.20
2019-02-17T10:30:39.891Z,52.10
2019-02-17T10:33:10.636Z,51.90
2019-02-17T10:35:41.348Z,51.70
2019-02-17T10:38:12.169Z,51.70
2019-02-17T10:40:42.704Z,51.50
2019-02-17T10:43:13.158Z,51.60
2019-02-17T10:45:43.672Z,51.40
2019-02-17T10:48:14.141Z,51.30
2019-02-17T10:50:45.155Z,51.10
2019-02-17T10:53:16.912Z,51.10
2019-02-17T10:55:47.632Z,51.20
2019-02-17T10:58:18.116Z,51.70
2019-02-17T11:00:48.599Z,52.10
2019-02-17T11:03:19.140Z,52.20
2019-02-17T11:05:49.664Z,52.10
2019-02-17T11:08:20.246Z,51.60
2019-02-17T11:10:50.983Z,51.20
2019-02-17T11:13:21.798Z,50.90
2019-02-17T11:15:52.314Z,50.90
2019-02-17T11:18:23.348Z,50.60
2019-02-17T11:20:53.726Z,50.70
2019-02-17T11:23:24.189Z,49.20
2019-02-17T11:25:54.789Z,48.70
2019-02-17T11:28:25.295Z,48.30
2019-02-17T11:30:55.902Z,47.90
2019-02-17T11:33:26.388Z,47.60
2019-02-17T11:35:57.210Z,47.60
2019-02-17T11:38:27.974Z,47.60
2019-02-17T11:40:58.576Z,47.50
2019-02-17T11:43:29.329Z,47.40
2019-02-17T11:46:00.043Z,47.40
2019-02-17T11:48:30.580Z,47.40
2019-02-17T11:51:01.058Z,47.40
2019-02-17T11:53:31.632Z,47.40
2019-02-17T11:56:02.020Z,47.40
2019-02-17T11:58:32.597Z,47.70
2019-02-17T12:01:05.266Z,47.50
2019-02-17T12:03:35.477Z,47.40
2019-02-17T12:06:06.035Z,47.40
2019-02-17T12:08:36.603Z,47.40
2019-02-17T12:11:07.114Z,47.40
2019-02-17T12:13:37.741Z,47.40
2019-02-17T12:16:08.373Z,47.30
2019-02-17T12:18:38.974Z,47.20
2019-02-17T12:21:18.112Z,47.30
2019-02-17T12:24:07.581Z,47.20
2019-02-17T12:27:03.043Z,47.20
2019-02-17T12:29:42.041Z,47.60
2019-02-17T12:32:12.488Z,47.20
2019-02-17T12:34:42.996Z,47.20
2019-02-17T12:37:13.457Z,47.20
2019-02-17T12:39:44.061Z,47.20
2019-02-17T12:42:14.540Z,47.20
2019-02-17T12:44:45.098Z,47.20
2019-02-17T12:47:17.671Z,47.10
2019-02-17T12:49:48.048Z,47.10
2019-02-17T12:52:18.474Z,47.10
2019-02-17T12:54:49.035Z,47.10
2019-02-17T12:57:19.788Z,47.20
2019-02-17T12:59:50.218Z,47.10
2019-02-17T13:02:20.682Z,47.10
2019-02-17T13:04:51.268Z,47.10
2019-02-17T13:07:21.722Z,47.80
2019-02-17T13:09:52.267Z,47.10
2019-02-17T13:12:22.817Z,47.10
2019-02-17T13:14:54.325Z,47.00
2019-02-17T13:17:24.788Z,46.90
2019-02-17T13:19:55.332Z,46.90
2019-02-17T13:22:25.756Z,46.90
2019-02-17T13:24:57.213Z,46.70
2019-02-17T13:27:27.880Z,46.60
2019-02-17T13:29:58.396Z,46.60
2019-02-17T13:32:28.947Z,46.50
2019-02-17T13:34:59.492Z,47.10
2019-02-17T13:37:30.385Z,46.30
2019-02-17T13:40:01.027Z,46.30
2019-02-17T13:42:31.803Z,46.30
2019-02-17T13:45:02.277Z,46.30
2019-02-17T13:47:33.829Z,46.20
2019-02-17T13:50:08.724Z,46.10
2019-02-17T13:52:39.089Z,46.00
2019-02-17T13:55:10.319Z,46.00
2019-02-17T13:57:41.037Z,45.90
2019-02-17T14:00:14.199Z,45.90
2019-02-17T14:02:44.761Z,45.90
2019-02-17T14:05:15.669Z,45.90
2019-02-17T14:07:46.119Z,45.90
2019-02-17T14:10:16.666Z,45.80
2019-02-17T14:12:47.222Z,45.70
2019-02-17T14:15:17.903Z,45.80
2019-02-17T14:17:51.197Z,45.70
2019-02-17T14:20:21.696Z,45.80
2019-02-17T14:22:53.958Z,45.80
2019-02-17T14:25:24.437Z,45.80
2019-02-17T14:27:55.184Z,45.80
2019-02-17T14:30:25.607Z,45.80
2019-02-17T14:32:56.129Z,45.80
2019-02-17T14:35:26.662Z,45.90
2019-02-17T14:37:57.180Z,45.90
2019-02-17T14:40:27.593Z,45.90
2019-02-17T14:42:58.314Z,45.90
2019-02-17T14:45:28.869Z,45.90
2019-02-17T14:47:59.386Z,45.90
2019-02-17T14:50:29.936Z,45.80
2019-02-17T14:53:00.455Z,45.90
2019-02-17T14:55:31.235Z,45.90
2019-02-17T14:58:05.450Z,45.90
2019-02-17T15:00:33.930Z,45.90
2019-02-17T15:03:04.550Z,45.90
2019-02-17T15:05:35.107Z,46.60
2019-02-17T15:08:05.717Z,45.90
2019-02-17T15:10:36.262Z,46.00
2019-02-17T15:13:06.839Z,45.90
2019-02-17T15:15:37.344Z,46.00
2019-02-17T15:18:08.073Z,45.90
2019-02-17T15:20:38.622Z,45.90
2019-02-17T15:23:09.181Z,45.90
2019-02-17T15:25:39.657Z,45.90
2019-02-17T15:28:10.161Z,46.00
2019-02-17T15:30:40.950Z,46.00
2019-02-17T15:33:11.512Z,46.00
2019-02-17T15:35:43.460Z,46.00
2019-02-17T15:38:14.063Z,45.90
2019-02-17T15:40:44.586Z,45.90
2019-02-17T15:43:15.187Z,45.80
2019-02-17T15:45:46.045Z,45.80
2019-02-17T15:48:16.433Z,45.80
2019-02-17T15:50:46.881Z,45.90
2019-02-17T15:53:17.420Z,45.80
2019-02-17T15:55:48.021Z,46.00
2019-02-17T15:58:18.504Z,46.10
2019-02-17T16:00:48.949Z,46.20
2019-02-17T16:03:19.464Z,46.10
2019-02-17T16:05:50.121Z,46.10
2019-02-17T16:08:20.649Z,46.00
2019-02-17T16:10:51.136Z,46.00
2019-02-17T16:13:21.723Z,46.20
2019-02-17T16:15:52.196Z,46.40
2019-02-17T16:18:22.697Z,46.40
2019-02-17T16:20:53.187Z,46.40
2019-02-17T16:23:24.039Z,46.60
2019-02-17T16:25:54.779Z,46.70
2019-02-17T16:28:25.204Z,46.90
2019-02-17T16:30:55.625Z,47.10
2019-02-17T16:33:26.222Z,47.10
2019-02-17T16:35:56.887Z,47.20
2019-02-17T16:38:27.388Z,47.30
2019-02-17T16:40:58.161Z,47.30
2019-02-17T16:43:30.294Z,47.30
2019-02-17T16:46:00.869Z,47.30
2019-02-17T16:48:31.704Z,47.40
2019-02-17T16:51:02.194Z,47.50
2019-02-17T16:53:32.736Z,47.70
2019-02-17T16:56:03.352Z,47.60
2019-02-17T16:58:34.101Z,47.60
2019-02-17T17:01:06.641Z,47.80
2019-02-17T17:03:37.270Z,47.80
2019-02-17T17:06:08.840Z,47.80
2019-02-17T17:08:39.816Z,47.80
2019-02-17T17:11:11.549Z,48.00
2019-02-17T17:13:42.335Z,48.20
2019-02-17T17:16:12.993Z,48.20
2019-02-17T17:18:43.589Z,48.20
2019-02-17T17:21:14.177Z,48.10
2019-02-17T17:23:45.653Z,48.20
2019-02-17T17:26:16.213Z,48.20
2019-02-17T17:28:46.691Z,48.30
2019-02-17T17:31:17.232Z,48.20
2019-02-17T17:33:48.913Z,48.20
2019-02-17T17:36:19.910Z,48.30
2019-02-17T17:38:50.455Z,48.40
2019-02-17T17:41:20.970Z,48.50
2019-02-17T17:43:51.845Z,48.60
2019-02-17T17:46:22.489Z,48.60
2019-02-17T17:48:53.070Z,48.70
2019-02-17T17:51:23.607Z,48.70
2019-02-17T17:53:54.306Z,48.70
2019-02-17T17:56:24.716Z,48.80
2019-02-17T17:58:55.283Z,48.90
2019-02-17T18:01:25.913Z,48.90
2019-02-17T18:03:56.441Z,49.00
2019-02-17T18:06:26.874Z,49.10
2019-02-17T18:08:57.508Z,49.00
2019-02-17T18:11:28.168Z,49.10
2019-02-17T18:13:58.752Z,49.10
2019-02-17T18:16:29.281Z,49.10
2019-02-17T18:18:59.986Z,49.10
2019-02-17T18:21:30.461Z,49.30
2019-02-17T18:24:01.126Z,50.00
2019-02-17T18:26:32.600Z,49.30
2019-02-17T18:29:03.124Z,49.30
2019-02-17T18:31:33.817Z,49.30
2019-02-17T18:34:04.496Z,49.50
2019-02-17T18:36:35.082Z,49.50
2019-02-17T18:39:06.923Z,49.50
2019-02-17T18:41:38.571Z,49.50
2019-02-17T18:44:09.206Z,49.60
2019-02-17T18:46:58.800Z,49.70
2019-02-17T18:49:30.965Z,49.50
2019-02-17T18:52:02.046Z,49.60
2019-02-17T18:54:34.837Z,49.70
2019-02-17T18:57:08.153Z,49.70
2019-02-17T18:59:37.992Z,49.80
2019-02-17T19:02:08.745Z,49.70
2019-02-17T19:04:39.343Z,49.60
2019-02-17T19:07:09.969Z,49.80
2019-02-17T19:09:40.613Z,49.80
2019-02-17T19:12:11.378Z,49.80
2019-02-17T19:14:42.039Z,49.80
2019-02-17T19:17:12.745Z,49.80
2019-02-17T19:19:43.291Z,49.90
2019-02-17T19:22:13.946Z,49.90
2019-02-17T19:24:44.580Z,50.00
2019-02-17T19:27:18.261Z,50.00
2019-02-17T19:29:48.915Z,50.10
2019-02-17T19:32:21.429Z,49.90
2019-02-17T19:34:52.236Z,49.90
2019-02-17T19:37:23.049Z,49.90
2019-02-17T19:39:53.860Z,49.90
2019-02-17T19:42:24.589Z,50.00
2019-02-17T19:44:55.374Z,49.90
2019-02-17T19:47:26.095Z,49.80
2019-02-17T19:49:56.880Z,49.90
2019-02-17T19:52:27.558Z,49.80
2019-02-17T19:54:58.264Z,49.80
2019-02-17T19:57:28.964Z,49.80
2019-02-17T19:59:59.522Z,49.80
2019-02-17T20:02:46.727Z,49.80
2019-02-17T20:05:35.491Z,49.70
2019-02-17T20:08:22.640Z,49.70
2019-02-17T20:11:02.168Z,49.60
2019-02-17T20:13:45.986Z,49.70
2019-02-17T20:16:39.012Z,49.50
2019-02-17T20:19:35.117Z,49.60
2019-02-17T20:22:13.272Z,49.60
2019-02-17T20:25:04.195Z,49.60
2019-02-17T20:27:55.913Z,49.60
2019-02-17T20:30:38.432Z,49.60
2019-02-17T20:33:10.884Z,49.60
2019-02-17T20:35:50.471Z,49.60
2019-02-17T20:38:29.870Z,49.70
2019-02-17T20:41:09.876Z,49.70
2019-02-17T20:44:01.815Z,49.70
2019-02-17T20:46:37.122Z,49.80
2019-02-17T20:49:09.688Z,49.90
2019-02-17T20:51:46.681Z,50.00
2019-02-17T20:54:34.420Z,50.30
2019-02-17T20:57:11.521Z,49.90
2019-02-17T20:59:53.612Z,49.90
2019-02-17T21:02:28.244Z,49.90
2019-02-17T21:05:02.980Z,49.80
2019-02-17T21:08:00.284Z,49.80
2019-02-17T21:10:35.324Z,49.70
2019-02-17T21:13:06.184Z,49.70
2019-02-17T21:15:37.194Z,49.70
2019-02-17T21:18:08.202Z,49.70
2019-02-17T21:20:38.833Z,49.80
2019-02-17T21:23:09.576Z,49.80
2019-02-17T21:25:40.161Z,49.90
2019-02-17T21:28:11.384Z,49.90
2019-02-17T21:30:42.294Z,50.00
2019-02-17T21:33:13.326Z,50.00
2019-02-17T21:35:44.108Z,50.10
2019-02-17T21:38:15.231Z,50.00
2019-02-17T21:40:46.173Z,50.10
2019-02-17T21:43:18.360Z,50.10
2019-02-17T21:45:49.158Z,50.00
2019-02-17T21:48:19.880Z,49.90
2019-02-17T21:50:50.529Z,49.90
2019-02-17T21:53:21.274Z,50.00
2019-02-17T21:55:52.149Z,50.00
2019-02-17T21:58:22.952Z,50.10
2019-02-17T22:00:53.534Z,50.00
2019-02-17T22:03:24.506Z,50.00
2019-02-17T22:05:55.479Z,50.00
2019-02-17T22:08:26.067Z,50.00
2019-02-17T22:10:56.867Z,50.00
2019-02-17T22:13:27.856Z,50.00
2019-02-17T22:15:58.427Z,50.10
2019-02-17T22:18:29.870Z,50.10
2019-02-17T22:21:00.750Z,50.10
2019-02-17T22:23:31.442Z,50.00
2019-02-17T22:26:02.352Z,50.10
2019-02-17T22:28:33.341Z,50.10
2019-02-17T22:31:05.296Z,50.10
2019-02-17T22:33:35.945Z,50.10
2019-02-17T22:36:07.646Z,50.20
2019-02-17T22:38:38.375Z,50.30
2019-02-17T22:41:09.513Z,50.50
2019-02-17T22:43:40.641Z,50.60
2019-02-17T22:46:12.040Z,50.80
2019-02-17T22:48:42.926Z,50.90
2019-02-17T22:51:13.666Z,50.80
2019-02-17T22:53:44.375Z,50.80
2019-02-17T22:56:15.095Z,50.80
2019-02-17T22:58:45.836Z,50.90
2019-02-17T23:01:24.373Z,50.80
2019-02-17T23:03:55.003Z,50.70
2019-02-17T23:06:25.870Z,50.60
2019-02-17T23:08:56.831Z,50.50
2019-02-17T23:11:27.493Z,50.40
2019-02-17T23:13:58.487Z,50.40
2019-02-17T23:16:29.196Z,50.40
2019-02-17T23:19:00.297Z,50.40
2019-02-17T23:21:30.827Z,51.00
2019-02-17T23:24:02.039Z,50.40
2019-02-17T23:26:32.681Z,50.50
2019-02-17T23:29:03.485Z,50.50
2019-02-17T23:31:34.171Z,50.50
2019-02-17T23:34:04.742Z,50.50
2019-02-17T23:36:35.305Z,50.40
2019-02-17T23:39:07.699Z,50.40
2019-02-17T23:41:39.315Z,50.40
2019-02-17T23:44:10.071Z,50.40
2019-02-17T23:46:41.728Z,50.40
2019-02-17T23:49:13.141Z,51.10
2019-02-17T23:51:43.631Z,50.50
2019-02-17T23:54:14.316Z,50.50
2019-02-17T23:56:45.042Z,50.50
2019-02-17T23:59:15.571Z,50.50
